sensor_id;sensor_type;location;lat;lon;timestamp;P1;durP1;ratioP1;P2;durP2;ratioP2
71969;SDS011;59838;52.152;5.436;2023-02-15T00:01:46;18.23;;;9.65;;
71969;SDS011;59838;52.152;5.436;2023-02-15T00:04:14;46.05;;;10.02;;
71969;SDS011;59838;52.152;5.436;2023-02-15T00:06:42;18.45;;;9.77;;
71969;SDS011;59838;52.152;5.436;2023-02-15T00:09:08;37.70;;;10.27;;
71969;SDS011;59838;52.152;5.436;2023-02-15T00:11:36;16.07;;;9.97;;
71969;SDS011;59838;52.152;5.436;2023-02-15T00:14:11;75.53;;;12.27;;
71969;SDS011;59838;52.152;5.436;2023-02-15T00:16:40;80.47;;;14.15;;
71969;SDS011;59838;52.152;5.436;2023-02-15T00:19:07;27.75;;;10.23;;
71969;SDS011;59838;52.152;5.436;2023-02-15T00:21:35;50.00;;;14.00;;
71969;SDS011;59838;52.152;5.436;2023-02-15T00:24:03;20.17;;;11.03;;
71969;SDS011;59838;52.152;5.436;2023-02-15T00:26:31;24.30;;;11.63;;
71969;SDS011;59838;52.152;5.436;2023-02-15T00:28:58;24.90;;;11.82;;
71969;SDS011;59838;52.152;5.436;2023-02-15T00:31:25;20.17;;;11.32;;
71969;SDS011;59838;52.152;5.436;2023-02-15T00:33:53;19.90;;;11.55;;
71969;SDS011;59838;52.152;5.436;2023-02-15T00:36:19;55.57;;;12.53;;
71969;SDS011;59838;52.152;5.436;2023-02-15T00:38:45;43.80;;;12.70;;
71969;SDS011;59838;52.152;5.436;2023-02-15T00:41:12;45.55;;;12.77;;
71969;SDS011;59838;52.152;5.436;2023-02-15T00:43:38;89.18;;;14.35;;
71969;SDS011;59838;52.152;5.436;2023-02-15T00:46:05;22.40;;;12.57;;
71969;SDS011;59838;52.152;5.436;2023-02-15T00:48:31;27.33;;;11.70;;
71969;SDS011;59838;52.152;5.436;2023-02-15T00:50:58;26.52;;;11.25;;
71969;SDS011;59838;52.152;5.436;2023-02-15T00:53:26;42.42;;;10.90;;
71969;SDS011;59838;52.152;5.436;2023-02-15T00:55:53;18.17;;;11.02;;
71969;SDS011;59838;52.152;5.436;2023-02-15T00:58:20;26.23;;;11.80;;
71969;SDS011;59838;52.152;5.436;2023-02-15T01:00:47;23.30;;;11.40;;
71969;SDS011;59838;52.152;5.436;2023-02-15T01:03:15;18.65;;;10.82;;
71969;SDS011;59838;52.152;5.436;2023-02-15T01:05:42;17.48;;;9.75;;
71969;SDS011;59838;52.152;5.436;2023-02-15T01:08:09;18.77;;;10.77;;
71969;SDS011;59838;52.152;5.436;2023-02-15T01:10:36;18.98;;;11.02;;
71969;SDS011;59838;52.152;5.436;2023-02-15T01:13:02;22.90;;;10.57;;
71969;SDS011;59838;52.152;5.436;2023-02-15T01:15:29;16.00;;;10.23;;
71969;SDS011;59838;52.152;5.436;2023-02-15T01:17:55;15.77;;;9.55;;
71969;SDS011;59838;52.152;5.436;2023-02-15T01:20:24;17.52;;;9.55;;
71969;SDS011;59838;52.152;5.436;2023-02-15T01:22:52;16.98;;;9.73;;
71969;SDS011;59838;52.152;5.436;2023-02-15T01:25:20;16.33;;;9.43;;
71969;SDS011;59838;52.152;5.436;2023-02-15T01:27:48;17.58;;;10.25;;
71969;SDS011;59838;52.152;5.436;2023-02-15T01:30:14;17.58;;;10.77;;
71969;SDS011;59838;52.152;5.436;2023-02-15T01:32:42;22.48;;;11.32;;
71969;SDS011;59838;52.152;5.436;2023-02-15T01:35:09;17.67;;;10.45;;
71969;SDS011;59838;52.152;5.436;2023-02-15T01:37:36;16.83;;;10.10;;
71969;SDS011;59838;52.152;5.436;2023-02-15T01:40:03;16.95;;;10.50;;
71969;SDS011;59838;52.152;5.436;2023-02-15T01:42:31;24.15;;;11.45;;
71969;SDS011;59838;52.152;5.436;2023-02-15T01:44:59;28.15;;;11.63;;
71969;SDS011;59838;52.152;5.436;2023-02-15T01:47:38;29.70;;;11.50;;
71969;SDS011;59838;52.152;5.436;2023-02-15T01:50:12;23.50;;;11.20;;
71969;SDS011;59838;52.152;5.436;2023-02-15T01:52:58;23.52;;;10.88;;
71969;SDS011;59838;52.152;5.436;2023-02-15T01:55:33;28.00;;;11.63;;
71969;SDS011;59838;52.152;5.436;2023-02-15T01:58:04;35.75;;;12.10;;
71969;SDS011;59838;52.152;5.436;2023-02-15T02:00:32;20.98;;;11.63;;
71969;SDS011;59838;52.152;5.436;2023-02-15T02:03:00;38.17;;;11.67;;
71969;SDS011;59838;52.152;5.436;2023-02-15T02:05:28;46.10;;;11.57;;
71969;SDS011;59838;52.152;5.436;2023-02-15T02:07:56;48.25;;;12.38;;
71969;SDS011;59838;52.152;5.436;2023-02-15T02:10:24;48.53;;;12.27;;
71969;SDS011;59838;52.152;5.436;2023-02-15T02:12:52;24.77;;;12.00;;
71969;SDS011;59838;52.152;5.436;2023-02-15T02:15:23;64.57;;;11.87;;
71969;SDS011;59838;52.152;5.436;2023-02-15T02:18:10;49.40;;;12.05;;
71969;SDS011;59838;52.152;5.436;2023-02-15T02:21:09;35.55;;;11.80;;
71969;SDS011;59838;52.152;5.436;2023-02-15T02:35:23;35.30;;;11.23;;
71969;SDS011;59838;52.152;5.436;2023-02-15T02:38:03;20.52;;;11.45;;
71969;SDS011;59838;52.152;5.436;2023-02-15T02:43:40;17.63;;;10.33;;
71969;SDS011;59838;52.152;5.436;2023-02-15T02:46:25;26.83;;;11.35;;
71969;SDS011;59838;52.152;5.436;2023-02-15T02:48:58;21.75;;;11.45;;
71969;SDS011;59838;52.152;5.436;2023-02-15T02:51:25;39.97;;;11.93;;
71969;SDS011;59838;52.152;5.436;2023-02-15T02:53:52;17.85;;;9.88;;
71969;SDS011;59838;52.152;5.436;2023-02-15T02:56:29;24.47;;;10.93;;
71969;SDS011;59838;52.152;5.436;2023-02-15T02:59:13;28.45;;;11.02;;
71969;SDS011;59838;52.152;5.436;2023-02-15T03:01:46;22.77;;;12.40;;
71969;SDS011;59838;52.152;5.436;2023-02-15T03:04:19;17.05;;;10.32;;
71969;SDS011;59838;52.152;5.436;2023-02-15T03:06:59;19.52;;;10.80;;
71969;SDS011;59838;52.152;5.436;2023-02-15T03:09:42;23.07;;;11.13;;
71969;SDS011;59838;52.152;5.436;2023-02-15T03:14:55;19.02;;;10.18;;
71969;SDS011;59838;52.152;5.436;2023-02-15T03:17:30;36.75;;;12.02;;
71969;SDS011;59838;52.152;5.436;2023-02-15T03:20:00;19.75;;;10.90;;
71969;SDS011;59838;52.152;5.436;2023-02-15T03:22:31;19.43;;;11.17;;
71969;SDS011;59838;52.152;5.436;2023-02-15T03:25:13;21.73;;;11.82;;
71969;SDS011;59838;52.152;5.436;2023-02-15T03:27:45;23.50;;;12.30;;
71969;SDS011;59838;52.152;5.436;2023-02-15T03:30:16;23.95;;;11.60;;
71969;SDS011;59838;52.152;5.436;2023-02-15T03:32:46;19.05;;;10.80;;
71969;SDS011;59838;52.152;5.436;2023-02-15T03:35:14;22.90;;;11.50;;
71969;SDS011;59838;52.152;5.436;2023-02-15T03:37:48;25.48;;;11.70;;
71969;SDS011;59838;52.152;5.436;2023-02-15T03:40:22;22.08;;;11.60;;
71969;SDS011;59838;52.152;5.436;2023-02-15T03:43:17;18.67;;;10.77;;
71969;SDS011;59838;52.152;5.436;2023-02-15T03:45:55;29.25;;;12.20;;
71969;SDS011;59838;52.152;5.436;2023-02-15T03:48:28;22.40;;;11.57;;
71969;SDS011;59838;52.152;5.436;2023-02-15T03:51:00;25.00;;;11.77;;
71969;SDS011;59838;52.152;5.436;2023-02-15T03:53:49;22.35;;;11.32;;
71969;SDS011;59838;52.152;5.436;2023-02-15T03:56:17;21.35;;;10.65;;
71969;SDS011;59838;52.152;5.436;2023-02-15T03:58:44;21.73;;;11.55;;
71969;SDS011;59838;52.152;5.436;2023-02-15T04:04:36;16.75;;;9.95;;
71969;SDS011;59838;52.152;5.436;2023-02-15T04:07:05;21.80;;;11.38;;
71969;SDS011;59838;52.152;5.436;2023-02-15T04:09:33;17.80;;;10.15;;
71969;SDS011;59838;52.152;5.436;2023-02-15T04:12:18;23.58;;;11.25;;
71969;SDS011;59838;52.152;5.436;2023-02-15T04:14:45;18.53;;;9.97;;
71969;SDS011;59838;52.152;5.436;2023-02-15T04:17:30;25.88;;;12.05;;
71969;SDS011;59838;52.152;5.436;2023-02-15T04:19:57;32.03;;;14.02;;
71969;SDS011;59838;52.152;5.436;2023-02-15T04:22:42;27.50;;;13.38;;
71969;SDS011;59838;52.152;5.436;2023-02-15T04:25:26;24.00;;;12.07;;
71969;SDS011;59838;52.152;5.436;2023-02-15T04:27:53;22.70;;;11.63;;
71969;SDS011;59838;52.152;5.436;2023-02-15T04:30:22;23.23;;;11.77;;
71969;SDS011;59838;52.152;5.436;2023-02-15T04:32:51;22.45;;;10.65;;
71969;SDS011;59838;52.152;5.436;2023-02-15T04:35:17;25.70;;;11.75;;
71969;SDS011;59838;52.152;5.436;2023-02-15T04:37:44;28.42;;;10.75;;
71969;SDS011;59838;52.152;5.436;2023-02-15T04:40:11;25.93;;;11.47;;
71969;SDS011;59838;52.152;5.436;2023-02-15T04:42:42;28.35;;;13.10;;
71969;SDS011;59838;52.152;5.436;2023-02-15T04:45:08;33.33;;;13.05;;
71969;SDS011;59838;52.152;5.436;2023-02-15T04:47:35;30.23;;;12.13;;
71969;SDS011;59838;52.152;5.436;2023-02-15T04:50:02;60.70;;;13.25;;
71969;SDS011;59838;52.152;5.436;2023-02-15T04:52:28;28.20;;;12.57;;
71969;SDS011;59838;52.152;5.436;2023-02-15T04:54:55;24.33;;;12.10;;
71969;SDS011;59838;52.152;5.436;2023-02-15T04:57:21;24.33;;;12.10;;
71969;SDS011;59838;52.152;5.436;2023-02-15T04:59:48;25.75;;;12.07;;
71969;SDS011;59838;52.152;5.436;2023-02-15T05:02:14;25.52;;;11.15;;
71969;SDS011;59838;52.152;5.436;2023-02-15T05:04:41;21.60;;;11.17;;
71969;SDS011;59838;52.152;5.436;2023-02-15T05:07:07;23.00;;;10.70;;
71969;SDS011;59838;52.152;5.436;2023-02-15T05:09:33;26.20;;;12.07;;
71969;SDS011;59838;52.152;5.436;2023-02-15T05:12:00;22.60;;;10.90;;
71969;SDS011;59838;52.152;5.436;2023-02-15T05:14:26;22.15;;;10.85;;
71969;SDS011;59838;52.152;5.436;2023-02-15T05:16:53;21.17;;;11.10;;
71969;SDS011;59838;52.152;5.436;2023-02-15T05:19:20;18.50;;;10.18;;
71969;SDS011;59838;52.152;5.436;2023-02-15T05:21:46;25.15;;;12.13;;
71969;SDS011;59838;52.152;5.436;2023-02-15T05:24:13;23.52;;;10.07;;
71969;SDS011;59838;52.152;5.436;2023-02-15T05:26:58;30.83;;;13.82;;
71969;SDS011;59838;52.152;5.436;2023-02-15T05:29:42;30.17;;;11.57;;
71969;SDS011;59838;52.152;5.436;2023-02-15T05:32:09;23.55;;;10.60;;
71969;SDS011;59838;52.152;5.436;2023-02-15T05:34:39;30.40;;;12.32;;
71969;SDS011;59838;52.152;5.436;2023-02-15T05:37:06;27.17;;;11.30;;
71969;SDS011;59838;52.152;5.436;2023-02-15T05:39:33;23.95;;;11.68;;
71969;SDS011;59838;52.152;5.436;2023-02-15T05:42:00;23.77;;;11.93;;
71969;SDS011;59838;52.152;5.436;2023-02-15T05:44:26;22.73;;;9.95;;
71969;SDS011;59838;52.152;5.436;2023-02-15T05:46:53;26.88;;;11.38;;
71969;SDS011;59838;52.152;5.436;2023-02-15T05:49:19;26.98;;;11.00;;
71969;SDS011;59838;52.152;5.436;2023-02-15T05:51:45;26.83;;;11.90;;
71969;SDS011;59838;52.152;5.436;2023-02-15T05:54:12;23.20;;;10.83;;
71969;SDS011;59838;52.152;5.436;2023-02-15T05:56:38;20.98;;;10.35;;
71969;SDS011;59838;52.152;5.436;2023-02-15T05:59:05;23.70;;;11.52;;
71969;SDS011;59838;52.152;5.436;2023-02-15T06:01:31;23.80;;;10.80;;
71969;SDS011;59838;52.152;5.436;2023-02-15T06:03:57;21.45;;;10.45;;
71969;SDS011;59838;52.152;5.436;2023-02-15T06:06:24;24.90;;;11.57;;
71969;SDS011;59838;52.152;5.436;2023-02-15T06:08:50;23.25;;;10.30;;
71969;SDS011;59838;52.152;5.436;2023-02-15T06:11:16;29.35;;;11.35;;
71969;SDS011;59838;52.152;5.436;2023-02-15T06:13:43;24.70;;;10.82;;
71969;SDS011;59838;52.152;5.436;2023-02-15T06:16:09;26.15;;;11.48;;
71969;SDS011;59838;52.152;5.436;2023-02-15T06:18:36;22.47;;;10.47;;
71969;SDS011;59838;52.152;5.436;2023-02-15T06:21:03;22.08;;;10.88;;
71969;SDS011;59838;52.152;5.436;2023-02-15T06:23:29;22.73;;;10.20;;
71969;SDS011;59838;52.152;5.436;2023-02-15T06:25:56;22.10;;;9.80;;
71969;SDS011;59838;52.152;5.436;2023-02-15T06:28:22;24.27;;;9.90;;
71969;SDS011;59838;52.152;5.436;2023-02-15T06:30:51;19.43;;;9.00;;
71969;SDS011;59838;52.152;5.436;2023-02-15T06:33:18;18.10;;;9.63;;
71969;SDS011;59838;52.152;5.436;2023-02-15T06:35:44;23.75;;;8.82;;
71969;SDS011;59838;52.152;5.436;2023-02-15T06:38:12;21.77;;;9.68;;
71969;SDS011;59838;52.152;5.436;2023-02-15T06:40:38;22.08;;;10.60;;
71969;SDS011;59838;52.152;5.436;2023-02-15T06:43:05;27.03;;;11.33;;
71969;SDS011;59838;52.152;5.436;2023-02-15T06:45:31;27.35;;;10.30;;
71969;SDS011;59838;52.152;5.436;2023-02-15T06:47:58;23.95;;;9.70;;
71969;SDS011;59838;52.152;5.436;2023-02-15T06:50:24;22.67;;;10.63;;
71969;SDS011;59838;52.152;5.436;2023-02-15T06:52:55;26.38;;;11.20;;
71969;SDS011;59838;52.152;5.436;2023-02-15T06:55:25;25.30;;;10.67;;
71969;SDS011;59838;52.152;5.436;2023-02-15T06:57:52;19.65;;;9.75;;
71969;SDS011;59838;52.152;5.436;2023-02-15T07:00:18;26.50;;;11.63;;
71969;SDS011;59838;52.152;5.436;2023-02-15T07:02:46;24.77;;;11.60;;
71969;SDS011;59838;52.152;5.436;2023-02-15T07:05:12;24.25;;;10.95;;
71969;SDS011;59838;52.152;5.436;2023-02-15T07:07:39;21.70;;;10.27;;
71969;SDS011;59838;52.152;5.436;2023-02-15T07:10:06;25.08;;;11.23;;
71969;SDS011;59838;52.152;5.436;2023-02-15T07:12:32;23.98;;;9.90;;
71969;SDS011;59838;52.152;5.436;2023-02-15T07:15:08;21.33;;;11.52;;
71969;SDS011;59838;52.152;5.436;2023-02-15T07:17:35;22.08;;;10.80;;
71969;SDS011;59838;52.152;5.436;2023-02-15T07:20:12;24.97;;;9.53;;
71969;SDS011;59838;52.152;5.436;2023-02-15T07:22:40;25.88;;;11.65;;
71969;SDS011;59838;52.152;5.436;2023-02-15T07:25:07;21.67;;;11.75;;
71969;SDS011;59838;52.152;5.436;2023-02-15T07:27:35;23.65;;;10.63;;
71969;SDS011;59838;52.152;5.436;2023-02-15T07:30:02;25.45;;;11.73;;
71969;SDS011;59838;52.152;5.436;2023-02-15T07:32:30;26.07;;;11.53;;
71969;SDS011;59838;52.152;5.436;2023-02-15T07:34:57;27.33;;;12.25;;
71969;SDS011;59838;52.152;5.436;2023-02-15T07:37:25;31.20;;;13.52;;
71969;SDS011;59838;52.152;5.436;2023-02-15T07:39:52;30.02;;;13.07;;
71969;SDS011;59838;52.152;5.436;2023-02-15T07:42:18;33.63;;;13.70;;
71969;SDS011;59838;52.152;5.436;2023-02-15T07:44:47;25.80;;;12.60;;
71969;SDS011;59838;52.152;5.436;2023-02-15T07:47:13;26.25;;;12.55;;
71969;SDS011;59838;52.152;5.436;2023-02-15T07:49:40;25.98;;;12.30;;
71969;SDS011;59838;52.152;5.436;2023-02-15T07:52:06;24.95;;;11.82;;
71969;SDS011;59838;52.152;5.436;2023-02-15T07:54:32;27.10;;;12.27;;
71969;SDS011;59838;52.152;5.436;2023-02-15T07:57:00;24.10;;;11.13;;
71969;SDS011;59838;52.152;5.436;2023-02-15T07:59:26;22.90;;;11.07;;
71969;SDS011;59838;52.152;5.436;2023-02-15T08:01:53;24.80;;;12.52;;
71969;SDS011;59838;52.152;5.436;2023-02-15T08:04:22;22.35;;;11.60;;
71969;SDS011;59838;52.152;5.436;2023-02-15T08:06:51;21.42;;;10.68;;
71969;SDS011;59838;52.152;5.436;2023-02-15T08:09:19;26.83;;;11.93;;
71969;SDS011;59838;52.152;5.436;2023-02-15T08:11:46;26.48;;;12.05;;
71969;SDS011;59838;52.152;5.436;2023-02-15T08:14:14;27.30;;;12.85;;
71969;SDS011;59838;52.152;5.436;2023-02-15T08:16:55;21.98;;;11.13;;
71969;SDS011;59838;52.152;5.436;2023-02-15T08:19:23;29.85;;;12.57;;
71969;SDS011;59838;52.152;5.436;2023-02-15T08:21:51;25.87;;;11.67;;
71969;SDS011;59838;52.152;5.436;2023-02-15T08:24:20;22.27;;;11.55;;
71969;SDS011;59838;52.152;5.436;2023-02-15T08:26:48;30.92;;;13.45;;
71969;SDS011;59838;52.152;5.436;2023-02-15T08:29:16;25.75;;;12.05;;
71969;SDS011;59838;52.152;5.436;2023-02-15T08:31:58;24.38;;;12.05;;
71969;SDS011;59838;52.152;5.436;2023-02-15T08:34:31;28.00;;;12.67;;
71969;SDS011;59838;52.152;5.436;2023-02-15T08:36:59;28.38;;;12.40;;
71969;SDS011;59838;52.152;5.436;2023-02-15T08:39:26;28.17;;;12.27;;
71969;SDS011;59838;52.152;5.436;2023-02-15T08:41:53;28.02;;;12.65;;
71969;SDS011;59838;52.152;5.436;2023-02-15T08:44:19;29.13;;;12.35;;
71969;SDS011;59838;52.152;5.436;2023-02-15T08:46:47;28.90;;;13.77;;
71969;SDS011;59838;52.152;5.436;2023-02-15T08:49:15;30.55;;;13.05;;
71969;SDS011;59838;52.152;5.436;2023-02-15T08:51:47;30.25;;;12.63;;
71969;SDS011;59838;52.152;5.436;2023-02-15T08:54:15;31.08;;;14.13;;
71969;SDS011;59838;52.152;5.436;2023-02-15T08:56:44;31.92;;;14.55;;
71969;SDS011;59838;52.152;5.436;2023-02-15T08:59:12;29.07;;;13.93;;
71969;SDS011;59838;52.152;5.436;2023-02-15T09:01:41;29.65;;;13.63;;
71969;SDS011;59838;52.152;5.436;2023-02-15T09:04:08;31.10;;;12.98;;
71969;SDS011;59838;52.152;5.436;2023-02-15T09:06:35;28.88;;;13.52;;
71969;SDS011;59838;52.152;5.436;2023-02-15T09:09:03;30.35;;;14.15;;
71969;SDS011;59838;52.152;5.436;2023-02-15T09:11:33;31.87;;;14.30;;
71969;SDS011;59838;52.152;5.436;2023-02-15T09:14:03;33.97;;;14.75;;
71969;SDS011;59838;52.152;5.436;2023-02-15T09:16:32;33.55;;;14.70;;
71969;SDS011;59838;52.152;5.436;2023-02-15T09:19:00;31.85;;;14.45;;
71969;SDS011;59838;52.152;5.436;2023-02-15T09:21:27;29.48;;;14.25;;
71969;SDS011;59838;52.152;5.436;2023-02-15T09:23:56;33.43;;;14.90;;
71969;SDS011;59838;52.152;5.436;2023-02-15T09:26:26;32.45;;;14.90;;
71969;SDS011;59838;52.152;5.436;2023-02-15T09:28:55;32.33;;;15.82;;
71969;SDS011;59838;52.152;5.436;2023-02-15T09:31:25;30.45;;;14.32;;
71969;SDS011;59838;52.152;5.436;2023-02-15T09:33:56;30.42;;;15.40;;
71969;SDS011;59838;52.152;5.436;2023-02-15T09:36:26;31.70;;;15.37;;
71969;SDS011;59838;52.152;5.436;2023-02-15T09:44:05;31.90;;;14.40;;
71969;SDS011;59838;52.152;5.436;2023-02-15T09:49:45;31.90;;;15.73;;
71969;SDS011;59838;52.152;5.436;2023-02-15T09:55:06;33.65;;;15.88;;
71969;SDS011;59838;52.152;5.436;2023-02-15T09:58:01;35.00;;;16.42;;
71969;SDS011;59838;52.152;5.436;2023-02-15T10:00:41;37.67;;;16.13;;
71969;SDS011;59838;52.152;5.436;2023-02-15T10:03:16;40.43;;;16.77;;
71969;SDS011;59838;52.152;5.436;2023-02-15T10:05:55;35.38;;;15.70;;
71969;SDS011;59838;52.152;5.436;2023-02-15T10:08:32;34.72;;;17.10;;
71969;SDS011;59838;52.152;5.436;2023-02-15T10:11:25;36.63;;;15.98;;
71969;SDS011;59838;52.152;5.436;2023-02-15T10:22:42;31.95;;;15.23;;
71969;SDS011;59838;52.152;5.436;2023-02-15T10:25:35;37.30;;;15.65;;
71969;SDS011;59838;52.152;5.436;2023-02-15T10:28:06;33.65;;;15.75;;
71969;SDS011;59838;52.152;5.436;2023-02-15T10:33:31;35.83;;;15.73;;
71969;SDS011;59838;52.152;5.436;2023-02-15T10:36:07;36.22;;;17.15;;
71969;SDS011;59838;52.152;5.436;2023-02-15T10:38:48;35.28;;;15.93;;
71969;SDS011;59838;52.152;5.436;2023-02-15T10:53:08;33.10;;;14.88;;
71969;SDS011;59838;52.152;5.436;2023-02-15T11:04:09;32.85;;;15.63;;
71969;SDS011;59838;52.152;5.436;2023-02-15T11:06:43;29.95;;;14.55;;
71969;SDS011;59838;52.152;5.436;2023-02-15T11:09:17;33.28;;;14.98;;
71969;SDS011;59838;52.152;5.436;2023-02-15T11:11:49;34.43;;;15.60;;
71969;SDS011;59838;52.152;5.436;2023-02-15T11:14:36;31.63;;;15.27;;
71969;SDS011;59838;52.152;5.436;2023-02-15T11:17:10;34.33;;;16.33;;
71969;SDS011;59838;52.152;5.436;2023-02-15T11:19:53;33.05;;;15.95;;
71969;SDS011;59838;52.152;5.436;2023-02-15T11:22:40;35.15;;;15.75;;
71969;SDS011;59838;52.152;5.436;2023-02-15T11:25:22;32.20;;;15.30;;
71969;SDS011;59838;52.152;5.436;2023-02-15T11:27:51;35.25;;;15.82;;
71969;SDS011;59838;52.152;5.436;2023-02-15T11:30:22;33.40;;;15.83;;
71969;SDS011;59838;52.152;5.436;2023-02-15T11:32:52;36.45;;;16.42;;
71969;SDS011;59838;52.152;5.436;2023-02-15T11:35:32;35.55;;;15.55;;
71969;SDS011;59838;52.152;5.436;2023-02-15T11:38:15;33.80;;;16.30;;
71969;SDS011;59838;52.152;5.436;2023-02-15T11:40:48;34.17;;;16.47;;
71969;SDS011;59838;52.152;5.436;2023-02-15T11:43:40;31.88;;;15.82;;
71969;SDS011;59838;52.152;5.436;2023-02-15T11:46:11;36.65;;;17.05;;
71969;SDS011;59838;52.152;5.436;2023-02-15T11:48:38;35.78;;;16.55;;
71969;SDS011;59838;52.152;5.436;2023-02-15T11:51:05;35.08;;;16.80;;
71969;SDS011;59838;52.152;5.436;2023-02-15T11:53:32;30.63;;;16.40;;
71969;SDS011;59838;52.152;5.436;2023-02-15T11:56:02;34.38;;;16.35;;
71969;SDS011;59838;52.152;5.436;2023-02-15T11:58:35;34.38;;;16.25;;
71969;SDS011;59838;52.152;5.436;2023-02-15T12:03:56;31.25;;;16.65;;
71969;SDS011;59838;52.152;5.436;2023-02-15T12:06:33;38.30;;;18.10;;
71969;SDS011;59838;52.152;5.436;2023-02-15T12:12:19;33.72;;;16.48;;
71969;SDS011;59838;52.152;5.436;2023-02-15T12:14:51;34.47;;;16.80;;
71969;SDS011;59838;52.152;5.436;2023-02-15T12:17:29;37.17;;;16.98;;
71969;SDS011;59838;52.152;5.436;2023-02-15T12:20:03;35.47;;;16.53;;
71969;SDS011;59838;52.152;5.436;2023-02-15T12:22:58;34.20;;;16.70;;
71969;SDS011;59838;52.152;5.436;2023-02-15T12:31:09;28.70;;;15.60;;
71969;SDS011;59838;52.152;5.436;2023-02-15T12:33:44;40.87;;;16.70;;
71969;SDS011;59838;52.152;5.436;2023-02-15T12:36:17;34.00;;;16.73;;
71969;SDS011;59838;52.152;5.436;2023-02-15T12:39:02;35.72;;;17.88;;
71969;SDS011;59838;52.152;5.436;2023-02-15T12:41:43;35.25;;;17.17;;
71969;SDS011;59838;52.152;5.436;2023-02-15T12:44:18;32.13;;;16.92;;
71969;SDS011;59838;52.152;5.436;2023-02-15T12:49:43;31.38;;;16.27;;
71969;SDS011;59838;52.152;5.436;2023-02-15T12:54:49;31.65;;;17.05;;
71969;SDS011;59838;52.152;5.436;2023-02-15T12:57:31;32.00;;;16.75;;
71969;SDS011;59838;52.152;5.436;2023-02-15T12:59:59;32.60;;;16.73;;
71969;SDS011;59838;52.152;5.436;2023-02-15T13:02:41;34.83;;;16.23;;
71969;SDS011;59838;52.152;5.436;2023-02-15T13:05:15;33.35;;;16.58;;
71969;SDS011;59838;52.152;5.436;2023-02-15T13:07:50;33.13;;;17.23;;
71969;SDS011;59838;52.152;5.436;2023-02-15T13:10:24;34.65;;;17.10;;
71969;SDS011;59838;52.152;5.436;2023-02-15T13:12:56;34.90;;;18.37;;
71969;SDS011;59838;52.152;5.436;2023-02-15T13:15:28;38.17;;;16.50;;
71969;SDS011;59838;52.152;5.436;2023-02-15T13:18:00;31.70;;;16.33;;
71969;SDS011;59838;52.152;5.436;2023-02-15T13:20:28;35.40;;;16.75;;
71969;SDS011;59838;52.152;5.436;2023-02-15T13:22:58;36.25;;;17.45;;
71969;SDS011;59838;52.152;5.436;2023-02-15T13:25:28;33.40;;;16.57;;
71969;SDS011;59838;52.152;5.436;2023-02-15T13:28:06;36.22;;;18.25;;
71969;SDS011;59838;52.152;5.436;2023-02-15T13:30:42;34.60;;;16.38;;
71969;SDS011;59838;52.152;5.436;2023-02-15T13:33:22;34.20;;;17.63;;
71969;SDS011;59838;52.152;5.436;2023-02-15T13:39:03;32.67;;;16.17;;
71969;SDS011;59838;52.152;5.436;2023-02-15T13:41:40;35.40;;;17.23;;
71969;SDS011;59838;52.152;5.436;2023-02-15T13:44:27;39.03;;;18.38;;
71969;SDS011;59838;52.152;5.436;2023-02-15T13:50:00;33.75;;;17.80;;
71969;SDS011;59838;52.152;5.436;2023-02-15T13:53:10;38.37;;;18.67;;
71969;SDS011;59838;52.152;5.436;2023-02-15T14:01:24;34.78;;;17.55;;
71969;SDS011;59838;52.152;5.436;2023-02-15T14:06:47;36.30;;;17.07;;
71969;SDS011;59838;52.152;5.436;2023-02-15T14:12:09;41.63;;;18.63;;
71969;SDS011;59838;52.152;5.436;2023-02-15T14:14:48;33.97;;;17.40;;
71969;SDS011;59838;52.152;5.436;2023-02-15T14:25:30;32.78;;;17.50;;
71969;SDS011;59838;52.152;5.436;2023-02-15T14:28:15;34.15;;;16.63;;
71969;SDS011;59838;52.152;5.436;2023-02-15T14:31:04;35.22;;;17.35;;
71969;SDS011;59838;52.152;5.436;2023-02-15T14:33:38;34.67;;;17.97;;
71969;SDS011;59838;52.152;5.436;2023-02-15T14:36:06;33.35;;;16.20;;
71969;SDS011;59838;52.152;5.436;2023-02-15T14:41:10;36.10;;;17.08;;
71969;SDS011;59838;52.152;5.436;2023-02-15T14:44:12;36.05;;;18.30;;
71969;SDS011;59838;52.152;5.436;2023-02-15T14:49:30;33.08;;;16.67;;
71969;SDS011;59838;52.152;5.436;2023-02-15T14:52:04;38.85;;;18.90;;
71969;SDS011;59838;52.152;5.436;2023-02-15T14:59:26;35.67;;;18.43;;
71969;SDS011;59838;52.152;5.436;2023-02-15T15:04:34;37.78;;;17.90;;
71969;SDS011;59838;52.152;5.436;2023-02-15T15:07:14;66.65;;;30.02;;
71969;SDS011;59838;52.152;5.436;2023-02-15T15:09:46;38.22;;;19.15;;
71969;SDS011;59838;52.152;5.436;2023-02-15T15:14:50;41.95;;;18.95;;
71969;SDS011;59838;52.152;5.436;2023-02-15T15:20:04;34.88;;;17.52;;
71969;SDS011;59838;52.152;5.436;2023-02-15T15:22:41;32.47;;;17.63;;
71969;SDS011;59838;52.152;5.436;2023-02-15T15:25:40;38.90;;;19.60;;
71969;SDS011;59838;52.152;5.436;2023-02-15T15:28:00;39.22;;;18.55;;
71969;SDS011;59838;52.152;5.436;2023-02-15T15:38:11;32.90;;;17.13;;
71969;SDS011;59838;52.152;5.436;2023-02-15T15:46:45;38.83;;;18.42;;
71969;SDS011;59838;52.152;5.436;2023-02-15T15:49:20;37.38;;;17.88;;
71969;SDS011;59838;52.152;5.436;2023-02-15T15:51:49;33.63;;;17.00;;
71969;SDS011;59838;52.152;5.436;2023-02-15T15:54:23;41.83;;;18.38;;
71969;SDS011;59838;52.152;5.436;2023-02-15T15:57:00;36.15;;;17.27;;
71969;SDS011;59838;52.152;5.436;2023-02-15T15:59:29;38.90;;;18.13;;
71969;SDS011;59838;52.152;5.436;2023-02-15T16:02:03;37.53;;;17.52;;
71969;SDS011;59838;52.152;5.436;2023-02-15T16:04:34;35.27;;;17.53;;
71969;SDS011;59838;52.152;5.436;2023-02-15T16:07:18;37.90;;;16.58;;
71969;SDS011;59838;52.152;5.436;2023-02-15T16:10:02;36.05;;;16.70;;
71969;SDS011;59838;52.152;5.436;2023-02-15T16:12:32;36.53;;;17.30;;
71969;SDS011;59838;52.152;5.436;2023-02-15T16:15:04;38.22;;;17.38;;
71969;SDS011;59838;52.152;5.436;2023-02-15T16:17:40;41.00;;;17.43;;
71969;SDS011;59838;52.152;5.436;2023-02-15T16:20:15;41.50;;;18.52;;
71969;SDS011;59838;52.152;5.436;2023-02-15T16:22:48;45.83;;;18.05;;
71969;SDS011;59838;52.152;5.436;2023-02-15T16:28:21;40.00;;;17.63;;
71969;SDS011;59838;52.152;5.436;2023-02-15T16:30:54;36.33;;;20.00;;
71969;SDS011;59838;52.152;5.436;2023-02-15T16:33:39;44.60;;;24.33;;
71969;SDS011;59838;52.152;5.436;2023-02-15T16:36:11;55.03;;;28.90;;
71969;SDS011;59838;52.152;5.436;2023-02-15T16:41:29;46.08;;;21.73;;
71969;SDS011;59838;52.152;5.436;2023-02-15T16:43:56;38.77;;;18.93;;
71969;SDS011;59838;52.152;5.436;2023-02-15T16:46:27;42.65;;;20.20;;
71969;SDS011;59838;52.152;5.436;2023-02-15T16:48:57;95.05;;;46.55;;
71969;SDS011;59838;52.152;5.436;2023-02-15T16:51:29;108.43;;;47.45;;
71969;SDS011;59838;52.152;5.436;2023-02-15T16:53:59;48.20;;;23.35;;
71969;SDS011;59838;52.152;5.436;2023-02-15T16:56:31;44.80;;;19.30;;
71969;SDS011;59838;52.152;5.436;2023-02-15T16:58:59;51.15;;;19.92;;
71969;SDS011;59838;52.152;5.436;2023-02-15T17:01:30;41.80;;;19.23;;
71969;SDS011;59838;52.152;5.436;2023-02-15T17:07:06;39.47;;;17.85;;
71969;SDS011;59838;52.152;5.436;2023-02-15T17:09:53;35.33;;;17.73;;
71969;SDS011;59838;52.152;5.436;2023-02-15T17:17:56;41.78;;;17.80;;
71969;SDS011;59838;52.152;5.436;2023-02-15T17:20:24;40.10;;;18.20;;
71969;SDS011;59838;52.152;5.436;2023-02-15T17:22:51;39.93;;;18.73;;